MSC Vienna — A8CI9 — position and weather

sailwx.info

Track history (hours):
 
Tides and Currents Weather Stations Pressure Air Temp Water Temp Dewpoint Dewpoint Depression Visibility Wind Speed Wind Dir Waves Ship Positions

MSC Vienna

Last reported at 2015-Aug-25 08:12 UTC. Time now 2015-Aug-29 20:56 UTC.
Position N 30°33' E 122°12'.

Length 260.1 m; beam 32.2 m; draft 12 m.

Type: Ship. MMSI: 636090654.

Date/timePositionNaut miles runAvg speedWind from/ knotsBaromVisibWave heightAir tempDewpointWater temp
2015-Aug-25 08:12N 30°33' E 122°12'811.3
2015-Aug-25 07:31N 30°37' E 122°04'1 0.8
2015-Aug-25 06:32N 30°38' E 122°03'40 1.3
2015-Aug-23 22:28N 30°34' E 122°50'367 7.2
2015-Aug-21 19:21N 36°41' E 122°42'1114.2
2015-Aug-21 18:33N 36°51' E 122°47'1514.1
2015-Aug-21 17:30N 37°05' E 122°54'4011.7
2015-Aug-21 14:05N 37°44' E 122°40'813.0
2015-Aug-21 13:27N 37°48' E 122°31'1513.5
2015-Aug-21 12:22N 37°56' E 122°16'1414.1
2015-Aug-21 11:24N 38°04' E 122°02'4314.8
2015-Aug-21 08:30N 38°25' E 121°14'15412.9
2015-Aug-20 20:33N 38°56' E 118°01'1111.5
2015-Aug-20 19:33N 38°60' E 117°47'0 0.2
2015-Aug-20 18:30N 39°00' E 117°47'0 0.0
2015-Aug-20 17:18N 39°00' E 117°47'0 0.0
2015-Aug-20 16:24N 39°00' E 117°47'0 0.0
2015-Aug-20 15:30N 39°00' E 117°47'0 0.0
2015-Aug-20 14:30N 39°00' E 117°47'0 0.0
2015-Aug-20 13:30N 39°00' E 117°47'0 0.0
2015-Aug-20 12:12N 39°00' E 117°47'0 0.0
2015-Aug-20 11:24N 39°00' E 117°47'0 0.0
2015-Aug-20 10:30N 39°00' E 117°47'5 5.3
2015-Aug-20 09:33N 38°57' E 117°53'23914.6
2015-Aug-19 17:10N 37°46' E 122°44'1015.2
2015-Aug-19 16:31N 37°41' E 122°55'  
Track history (hours):
 
Tides and Currents Weather Stations Pressure Air Temp Water Temp Dewpoint Dewpoint Depression Visibility Wind Speed Wind Dir Waves Ship Positions

MSC Vienna

Last reported at 2015-Aug-25 08:12 UTC. Time now 2015-Aug-29 20:56 UTC.
Position N 30°33' E 122°12'.

Length 260.1 m; beam 32.2 m; draft 12 m.

Type: Ship. MMSI: 636090654.

Date/timePositionNaut miles runAvg speedWind from/ knotsBaromVisibWave heightAir tempDewpointWater temp
2015-Aug-25 08:12N 30°33' E 122°12'811.3
2015-Aug-25 07:31N 30°37' E 122°04'1 0.8
2015-Aug-25 06:32N 30°38' E 122°03'40 1.3
2015-Aug-23 22:28N 30°34' E 122°50'367 7.2
2015-Aug-21 19:21N 36°41' E 122°42'1114.2
2015-Aug-21 18:33N 36°51' E 122°47'1514.1
2015-Aug-21 17:30N 37°05' E 122°54'4011.7
2015-Aug-21 14:05N 37°44' E 122°40'813.0
2015-Aug-21 13:27N 37°48' E 122°31'1513.5
2015-Aug-21 12:22N 37°56' E 122°16'1414.1
2015-Aug-21 11:24N 38°04' E 122°02'4314.8
2015-Aug-21 08:30N 38°25' E 121°14'15412.9
2015-Aug-20 20:33N 38°56' E 118°01'1111.5
2015-Aug-20 19:33N 38°60' E 117°47'0 0.2
2015-Aug-20 18:30N 39°00' E 117°47'0 0.0
2015-Aug-20 17:18N 39°00' E 117°47'0 0.0
2015-Aug-20 16:24N 39°00' E 117°47'0 0.0
2015-Aug-20 15:30N 39°00' E 117°47'0 0.0
2015-Aug-20 14:30N 39°00' E 117°47'0 0.0
2015-Aug-20 13:30N 39°00' E 117°47'0 0.0
2015-Aug-20 12:12N 39°00' E 117°47'0 0.0
2015-Aug-20 11:24N 39°00' E 117°47'0 0.0
2015-Aug-20 10:30N 39°00' E 117°47'5 5.3
2015-Aug-20 09:33N 38°57' E 117°53'23914.6
2015-Aug-19 17:10N 37°46' E 122°44'1015.2
2015-Aug-19 16:31N 37°41' E 122°55'  

Dump ship's entire track history